sensor_id;sensor_type;location;lat;lon;timestamp;temperature;humidity
24338;DHT22;12457;50.832;4.346;2023-03-12T00:00:08;5.90;99.90
24338;DHT22;12457;50.832;4.346;2023-03-12T00:02:36;6.00;99.90
24338;DHT22;12457;50.832;4.346;2023-03-12T00:05:02;5.90;99.90
24338;DHT22;12457;50.832;4.346;2023-03-12T00:07:28;5.90;99.90
24338;DHT22;12457;50.832;4.346;2023-03-12T00:09:54;5.90;99.90
24338;DHT22;12457;50.832;4.346;2023-03-12T00:12:20;5.90;99.90
24338;DHT22;12457;50.832;4.346;2023-03-12T00:14:46;5.90;99.90
24338;DHT22;12457;50.832;4.346;2023-03-12T00:17:12;5.90;99.90
24338;DHT22;12457;50.832;4.346;2023-03-12T00:19:38;5.80;99.90
24338;DHT22;12457;50.832;4.346;2023-03-12T00:22:04;5.80;99.90
24338;DHT22;12457;50.832;4.346;2023-03-12T00:24:29;5.70;99.90
24338;DHT22;12457;50.832;4.346;2023-03-12T00:26:55;5.70;99.90
24338;DHT22;12457;50.832;4.346;2023-03-12T00:29:21;5.80;99.90
24338;DHT22;12457;50.832;4.346;2023-03-12T00:31:46;5.80;99.90
24338;DHT22;12457;50.832;4.346;2023-03-12T00:34:12;5.70;99.90
24338;DHT22;12457;50.832;4.346;2023-03-12T00:36:38;5.70;99.90
24338;DHT22;12457;50.832;4.346;2023-03-12T00:39:06;5.60;99.90
24338;DHT22;12457;50.832;4.346;2023-03-12T00:41:32;5.50;99.90
24338;DHT22;12457;50.832;4.346;2023-03-12T00:43:58;5.40;99.90
24338;DHT22;12457;50.832;4.346;2023-03-12T00:46:27;5.40;99.90
24338;DHT22;12457;50.832;4.346;2023-03-12T00:48:55;5.40;99.90
24338;DHT22;12457;50.832;4.346;2023-03-12T00:51:21;5.40;99.90
24338;DHT22;12457;50.832;4.346;2023-03-12T00:53:46;5.40;99.90
24338;DHT22;12457;50.832;4.346;2023-03-12T00:56:18;5.40;99.90
24338;DHT22;12457;50.832;4.346;2023-03-12T00:58:44;5.40;99.90
24338;DHT22;12457;50.832;4.346;2023-03-12T01:01:10;5.40;99.90
24338;DHT22;12457;50.832;4.346;2023-03-12T01:03:36;5.40;99.90
24338;DHT22;12457;50.832;4.346;2023-03-12T01:06:02;5.40;99.90
24338;DHT22;12457;50.832;4.346;2023-03-12T01:08:29;5.40;99.90
24338;DHT22;12457;50.832;4.346;2023-03-12T01:10:58;5.30;99.90
24338;DHT22;12457;50.832;4.346;2023-03-12T01:13:24;5.30;99.90
24338;DHT22;12457;50.832;4.346;2023-03-12T01:15:50;5.30;99.90
24338;DHT22;12457;50.832;4.346;2023-03-12T01:18:15;5.20;99.90
24338;DHT22;12457;50.832;4.346;2023-03-12T01:20:41;5.10;99.90
24338;DHT22;12457;50.832;4.346;2023-03-12T01:23:07;5.10;99.90
24338;DHT22;12457;50.832;4.346;2023-03-12T01:25:33;5.10;99.90
24338;DHT22;12457;50.832;4.346;2023-03-12T01:27:59;5.00;99.90
24338;DHT22;12457;50.832;4.346;2023-03-12T01:30:25;5.00;99.90
24338;DHT22;12457;50.832;4.346;2023-03-12T01:32:51;4.90;99.90
24338;DHT22;12457;50.832;4.346;2023-03-12T01:35:17;4.90;99.90
24338;DHT22;12457;50.832;4.346;2023-03-12T01:37:43;4.90;99.90
24338;DHT22;12457;50.832;4.346;2023-03-12T01:40:14;4.90;99.90
24338;DHT22;12457;50.832;4.346;2023-03-12T01:42:41;4.90;99.90
24338;DHT22;12457;50.832;4.346;2023-03-12T01:48:10;4.80;99.90
24338;DHT22;12457;50.832;4.346;2023-03-12T01:50:37;4.80;99.90
24338;DHT22;12457;50.832;4.346;2023-03-12T01:53:03;4.80;99.90
24338;DHT22;12457;50.832;4.346;2023-03-12T01:55:29;4.80;99.90
24338;DHT22;12457;50.832;4.346;2023-03-12T01:57:58;4.80;99.90
24338;DHT22;12457;50.832;4.346;2023-03-12T02:00:27;4.80;99.90
24338;DHT22;12457;50.832;4.346;2023-03-12T02:02:55;4.80;99.90
24338;DHT22;12457;50.832;4.346;2023-03-12T02:08:11;4.80;99.90
24338;DHT22;12457;50.832;4.346;2023-03-12T02:10:38;4.80;99.90
24338;DHT22;12457;50.832;4.346;2023-03-12T02:13:04;4.80;99.90
24338;DHT22;12457;50.832;4.346;2023-03-12T02:15:30;4.80;99.90
24338;DHT22;12457;50.832;4.346;2023-03-12T02:17:56;4.80;99.90
24338;DHT22;12457;50.832;4.346;2023-03-12T02:20:33;4.90;99.90
24338;DHT22;12457;50.832;4.346;2023-03-12T02:23:27;4.90;99.90
24338;DHT22;12457;50.832;4.346;2023-03-12T02:25:55;4.90;99.90
24338;DHT22;12457;50.832;4.346;2023-03-12T02:28:24;4.80;99.90
24338;DHT22;12457;50.832;4.346;2023-03-12T02:30:52;4.80;99.90
24338;DHT22;12457;50.832;4.346;2023-03-12T02:33:21;4.90;99.90
24338;DHT22;12457;50.832;4.346;2023-03-12T02:35:47;4.80;99.90
24338;DHT22;12457;50.832;4.346;2023-03-12T02:41:10;4.90;99.90
24338;DHT22;12457;50.832;4.346;2023-03-12T02:43:36;5.10;99.90
24338;DHT22;12457;50.832;4.346;2023-03-12T02:46:03;5.00;99.90
24338;DHT22;12457;50.832;4.346;2023-03-12T02:48:28;5.00;99.90
24338;DHT22;12457;50.832;4.346;2023-03-12T02:50:54;4.90;99.90
24338;DHT22;12457;50.832;4.346;2023-03-12T02:53:20;4.90;99.90
24338;DHT22;12457;50.832;4.346;2023-03-12T02:55:45;4.90;99.90
24338;DHT22;12457;50.832;4.346;2023-03-12T02:58:21;5.00;99.90
24338;DHT22;12457;50.832;4.346;2023-03-12T03:00:46;5.10;99.90
24338;DHT22;12457;50.832;4.346;2023-03-12T03:03:13;5.10;99.90
24338;DHT22;12457;50.832;4.346;2023-03-12T03:05:39;5.10;99.90
24338;DHT22;12457;50.832;4.346;2023-03-12T03:08:06;5.00;99.90
24338;DHT22;12457;50.832;4.346;2023-03-12T03:10:32;5.00;99.90
24338;DHT22;12457;50.832;4.346;2023-03-12T03:12:58;5.10;99.90
24338;DHT22;12457;50.832;4.346;2023-03-12T03:15:23;5.10;99.90
24338;DHT22;12457;50.832;4.346;2023-03-12T03:17:49;5.10;99.90
24338;DHT22;12457;50.832;4.346;2023-03-12T03:20:15;5.10;99.90
24338;DHT22;12457;50.832;4.346;2023-03-12T03:22:42;5.10;99.90
24338;DHT22;12457;50.832;4.346;2023-03-12T03:25:09;5.10;99.90
24338;DHT22;12457;50.832;4.346;2023-03-12T03:27:35;5.10;99.90
24338;DHT22;12457;50.832;4.346;2023-03-12T03:30:01;5.20;99.90
24338;DHT22;12457;50.832;4.346;2023-03-12T03:32:28;5.20;99.90
24338;DHT22;12457;50.832;4.346;2023-03-12T03:34:54;5.20;99.90
24338;DHT22;12457;50.832;4.346;2023-03-12T03:37:19;5.30;99.90
24338;DHT22;12457;50.832;4.346;2023-03-12T03:39:45;5.50;99.90
24338;DHT22;12457;50.832;4.346;2023-03-12T03:42:11;5.50;99.90
24338;DHT22;12457;50.832;4.346;2023-03-12T03:44:36;5.50;99.90
24338;DHT22;12457;50.832;4.346;2023-03-12T03:47:02;5.50;99.90
24338;DHT22;12457;50.832;4.346;2023-03-12T03:49:29;5.50;99.90
24338;DHT22;12457;50.832;4.346;2023-03-12T03:51:56;5.50;99.90
24338;DHT22;12457;50.832;4.346;2023-03-12T03:54:21;5.60;99.90
24338;DHT22;12457;50.832;4.346;2023-03-12T03:56:53;5.60;99.90
24338;DHT22;12457;50.832;4.346;2023-03-12T03:59:18;5.60;99.90
24338;DHT22;12457;50.832;4.346;2023-03-12T04:01:45;5.60;99.90
24338;DHT22;12457;50.832;4.346;2023-03-12T04:04:11;5.60;99.90
24338;DHT22;12457;50.832;4.346;2023-03-12T04:06:37;5.70;99.90
24338;DHT22;12457;50.832;4.346;2023-03-12T04:09:03;5.70;99.90
24338;DHT22;12457;50.832;4.346;2023-03-12T04:11:29;5.80;99.90
24338;DHT22;12457;50.832;4.346;2023-03-12T04:13:56;5.90;99.90
24338;DHT22;12457;50.832;4.346;2023-03-12T04:16:21;6.00;99.90
24338;DHT22;12457;50.832;4.346;2023-03-12T04:18:47;6.00;99.90
24338;DHT22;12457;50.832;4.346;2023-03-12T04:21:13;5.90;99.90
24338;DHT22;12457;50.832;4.346;2023-03-12T04:23:39;5.80;99.90
24338;DHT22;12457;50.832;4.346;2023-03-12T04:26:06;5.90;99.90
24338;DHT22;12457;50.832;4.346;2023-03-12T04:28:52;5.90;99.90
24338;DHT22;12457;50.832;4.346;2023-03-12T04:31:18;5.90;99.90
24338;DHT22;12457;50.832;4.346;2023-03-12T04:33:44;5.90;99.90
24338;DHT22;12457;50.832;4.346;2023-03-12T04:36:11;5.90;99.90
24338;DHT22;12457;50.832;4.346;2023-03-12T04:38:41;5.80;99.90
24338;DHT22;12457;50.832;4.346;2023-03-12T04:41:11;5.90;99.90
24338;DHT22;12457;50.832;4.346;2023-03-12T04:43:37;6.00;99.90
24338;DHT22;12457;50.832;4.346;2023-03-12T04:46:06;6.10;99.90
24338;DHT22;12457;50.832;4.346;2023-03-12T04:48:34;6.10;99.90
24338;DHT22;12457;50.832;4.346;2023-03-12T04:51:01;6.10;99.90
24338;DHT22;12457;50.832;4.346;2023-03-12T04:53:27;6.00;99.90
24338;DHT22;12457;50.832;4.346;2023-03-12T04:55:53;5.90;99.90
24338;DHT22;12457;50.832;4.346;2023-03-12T04:58:19;5.90;99.90
24338;DHT22;12457;50.832;4.346;2023-03-12T05:00:47;5.80;99.90
24338;DHT22;12457;50.832;4.346;2023-03-12T05:03:13;5.80;99.90
24338;DHT22;12457;50.832;4.346;2023-03-12T05:05:38;5.90;99.90
24338;DHT22;12457;50.832;4.346;2023-03-12T05:08:04;5.90;99.90
24338;DHT22;12457;50.832;4.346;2023-03-12T05:10:31;6.00;99.90
24338;DHT22;12457;50.832;4.346;2023-03-12T05:13:28;6.10;99.90
24338;DHT22;12457;50.832;4.346;2023-03-12T05:15:54;6.10;99.90
24338;DHT22;12457;50.832;4.346;2023-03-12T05:18:19;6.10;99.90
24338;DHT22;12457;50.832;4.346;2023-03-12T05:20:45;6.10;99.90
24338;DHT22;12457;50.832;4.346;2023-03-12T05:23:11;6.10;99.90
24338;DHT22;12457;50.832;4.346;2023-03-12T05:25:40;6.10;99.90
24338;DHT22;12457;50.832;4.346;2023-03-12T05:28:08;6.10;99.90
24338;DHT22;12457;50.832;4.346;2023-03-12T05:30:34;6.20;99.90
24338;DHT22;12457;50.832;4.346;2023-03-12T05:32:59;6.30;99.90
24338;DHT22;12457;50.832;4.346;2023-03-12T05:35:25;6.40;99.90
24338;DHT22;12457;50.832;4.346;2023-03-12T05:37:51;6.30;99.90
24338;DHT22;12457;50.832;4.346;2023-03-12T05:40:17;6.30;99.90
24338;DHT22;12457;50.832;4.346;2023-03-12T05:42:43;6.40;99.90
24338;DHT22;12457;50.832;4.346;2023-03-12T05:45:09;6.40;99.90
24338;DHT22;12457;50.832;4.346;2023-03-12T05:47:35;6.40;99.90
24338;DHT22;12457;50.832;4.346;2023-03-12T05:50:01;6.40;99.90
24338;DHT22;12457;50.832;4.346;2023-03-12T05:52:27;6.40;99.90
24338;DHT22;12457;50.832;4.346;2023-03-12T05:54:53;6.40;99.90
24338;DHT22;12457;50.832;4.346;2023-03-12T05:57:19;6.40;99.90
24338;DHT22;12457;50.832;4.346;2023-03-12T05:59:44;6.50;99.90
24338;DHT22;12457;50.832;4.346;2023-03-12T06:02:11;6.50;99.90
24338;DHT22;12457;50.832;4.346;2023-03-12T06:04:37;6.60;99.90
24338;DHT22;12457;50.832;4.346;2023-03-12T06:07:03;6.70;99.90
24338;DHT22;12457;50.832;4.346;2023-03-12T06:09:29;6.70;99.90
24338;DHT22;12457;50.832;4.346;2023-03-12T06:11:55;6.80;99.90
24338;DHT22;12457;50.832;4.346;2023-03-12T06:14:21;6.80;99.90
24338;DHT22;12457;50.832;4.346;2023-03-12T06:16:46;6.80;99.90
24338;DHT22;12457;50.832;4.346;2023-03-12T06:19:12;6.70;99.90
24338;DHT22;12457;50.832;4.346;2023-03-12T06:21:38;6.80;99.90
24338;DHT22;12457;50.832;4.346;2023-03-12T06:24:06;6.80;99.90
24338;DHT22;12457;50.832;4.346;2023-03-12T06:26:32;6.80;99.90
24338;DHT22;12457;50.832;4.346;2023-03-12T06:28:57;6.90;99.90
24338;DHT22;12457;50.832;4.346;2023-03-12T06:31:23;6.90;99.90
24338;DHT22;12457;50.832;4.346;2023-03-12T06:33:49;6.90;99.90
24338;DHT22;12457;50.832;4.346;2023-03-12T06:36:16;6.90;99.90
24338;DHT22;12457;50.832;4.346;2023-03-12T06:38:42;6.90;99.90
24338;DHT22;12457;50.832;4.346;2023-03-12T06:41:13;7.00;99.90
24338;DHT22;12457;50.832;4.346;2023-03-12T06:43:40;7.00;99.90
24338;DHT22;12457;50.832;4.346;2023-03-12T06:46:07;7.10;99.90
24338;DHT22;12457;50.832;4.346;2023-03-12T06:48:34;7.10;99.90
24338;DHT22;12457;50.832;4.346;2023-03-12T06:51:07;7.20;99.90
24338;DHT22;12457;50.832;4.346;2023-03-12T06:53:33;7.20;99.90
24338;DHT22;12457;50.832;4.346;2023-03-12T06:56:01;7.20;99.90
24338;DHT22;12457;50.832;4.346;2023-03-12T06:58:27;7.40;99.90
24338;DHT22;12457;50.832;4.346;2023-03-12T07:00:54;7.50;99.90
24338;DHT22;12457;50.832;4.346;2023-03-12T07:03:20;7.50;99.90
24338;DHT22;12457;50.832;4.346;2023-03-12T07:05:48;7.60;99.90
24338;DHT22;12457;50.832;4.346;2023-03-12T07:08:16;7.50;99.90
24338;DHT22;12457;50.832;4.346;2023-03-12T07:10:43;7.60;99.90
24338;DHT22;12457;50.832;4.346;2023-03-12T07:13:09;7.60;99.90
24338;DHT22;12457;50.832;4.346;2023-03-12T07:15:37;7.70;99.90
24338;DHT22;12457;50.832;4.346;2023-03-12T07:18:08;7.80;99.90
24338;DHT22;12457;50.832;4.346;2023-03-12T07:20:39;7.80;99.90
24338;DHT22;12457;50.832;4.346;2023-03-12T07:23:06;7.80;99.90
24338;DHT22;12457;50.832;4.346;2023-03-12T07:25:36;7.90;99.90
24338;DHT22;12457;50.832;4.346;2023-03-12T07:28:04;8.00;99.90
24338;DHT22;12457;50.832;4.346;2023-03-12T07:30:30;8.00;99.90
24338;DHT22;12457;50.832;4.346;2023-03-12T07:32:59;8.00;99.90
24338;DHT22;12457;50.832;4.346;2023-03-12T07:35:25;8.10;99.90
24338;DHT22;12457;50.832;4.346;2023-03-12T07:37:52;8.20;99.90
24338;DHT22;12457;50.832;4.346;2023-03-12T07:40:19;8.30;99.90
24338;DHT22;12457;50.832;4.346;2023-03-12T07:42:45;8.30;99.90
24338;DHT22;12457;50.832;4.346;2023-03-12T07:45:24;8.50;99.90
24338;DHT22;12457;50.832;4.346;2023-03-12T07:47:50;8.50;99.90
24338;DHT22;12457;50.832;4.346;2023-03-12T07:50:17;8.50;99.90
24338;DHT22;12457;50.832;4.346;2023-03-12T07:52:43;8.60;99.90
24338;DHT22;12457;50.832;4.346;2023-03-12T07:55:10;8.70;99.90
24338;DHT22;12457;50.832;4.346;2023-03-12T07:57:37;8.70;99.90
24338;DHT22;12457;50.832;4.346;2023-03-12T08:00:04;8.70;99.90
24338;DHT22;12457;50.832;4.346;2023-03-12T08:02:32;8.70;99.90
24338;DHT22;12457;50.832;4.346;2023-03-12T08:04:58;8.80;99.90
24338;DHT22;12457;50.832;4.346;2023-03-12T08:07:24;8.90;99.90
24338;DHT22;12457;50.832;4.346;2023-03-12T08:09:50;9.00;99.90
24338;DHT22;12457;50.832;4.346;2023-03-12T08:12:17;9.00;99.90
24338;DHT22;12457;50.832;4.346;2023-03-12T08:14:43;9.10;99.90
24338;DHT22;12457;50.832;4.346;2023-03-12T08:17:09;9.00;99.90
24338;DHT22;12457;50.832;4.346;2023-03-12T08:19:34;9.10;99.90
24338;DHT22;12457;50.832;4.346;2023-03-12T08:22:00;9.20;99.90
24338;DHT22;12457;50.832;4.346;2023-03-12T08:24:26;9.20;99.90
24338;DHT22;12457;50.832;4.346;2023-03-12T08:26:51;9.20;99.90
24338;DHT22;12457;50.832;4.346;2023-03-12T08:29:20;9.30;99.90
24338;DHT22;12457;50.832;4.346;2023-03-12T08:31:46;9.30;99.90
24338;DHT22;12457;50.832;4.346;2023-03-12T08:34:11;9.30;99.90
24338;DHT22;12457;50.832;4.346;2023-03-12T08:36:37;9.40;99.90
24338;DHT22;12457;50.832;4.346;2023-03-12T08:39:03;9.50;99.90
24338;DHT22;12457;50.832;4.346;2023-03-12T08:41:29;9.60;99.90
24338;DHT22;12457;50.832;4.346;2023-03-12T08:43:54;9.80;99.90
24338;DHT22;12457;50.832;4.346;2023-03-12T08:46:21;9.90;99.90
24338;DHT22;12457;50.832;4.346;2023-03-12T08:48:47;10.10;99.90
24338;DHT22;12457;50.832;4.346;2023-03-12T08:51:13;10.20;99.90
24338;DHT22;12457;50.832;4.346;2023-03-12T08:53:39;10.30;99.90
24338;DHT22;12457;50.832;4.346;2023-03-12T08:56:06;10.30;99.90
24338;DHT22;12457;50.832;4.346;2023-03-12T08:58:32;10.40;99.90
24338;DHT22;12457;50.832;4.346;2023-03-12T09:00:57;10.50;99.90
24338;DHT22;12457;50.832;4.346;2023-03-12T09:03:24;10.60;99.90
24338;DHT22;12457;50.832;4.346;2023-03-12T09:06:00;10.70;99.90
24338;DHT22;12457;50.832;4.346;2023-03-12T09:08:26;10.90;99.90
24338;DHT22;12457;50.832;4.346;2023-03-12T09:10:51;11.00;99.90
24338;DHT22;12457;50.832;4.346;2023-03-12T09:13:17;11.10;99.90
24338;DHT22;12457;50.832;4.346;2023-03-12T09:15:43;11.10;99.90
24338;DHT22;12457;50.832;4.346;2023-03-12T09:18:09;11.20;99.90
24338;DHT22;12457;50.832;4.346;2023-03-12T09:20:38;11.30;99.90
24338;DHT22;12457;50.832;4.346;2023-03-12T09:23:03;11.40;99.90
24338;DHT22;12457;50.832;4.346;2023-03-12T09:25:29;11.50;99.90
24338;DHT22;12457;50.832;4.346;2023-03-12T09:27:55;11.60;99.90
24338;DHT22;12457;50.832;4.346;2023-03-12T09:30:21;11.90;99.90
24338;DHT22;12457;50.832;4.346;2023-03-12T09:32:49;12.00;99.90
24338;DHT22;12457;50.832;4.346;2023-03-12T09:35:16;12.10;99.90
24338;DHT22;12457;50.832;4.346;2023-03-12T09:37:42;12.30;99.90
24338;DHT22;12457;50.832;4.346;2023-03-12T09:40:18;12.40;99.90
24338;DHT22;12457;50.832;4.346;2023-03-12T09:42:49;12.70;99.90
24338;DHT22;12457;50.832;4.346;2023-03-12T09:45:24;12.70;99.90
24338;DHT22;12457;50.832;4.346;2023-03-12T09:48:02;12.70;99.90
24338;DHT22;12457;50.832;4.346;2023-03-12T09:55:42;12.80;99.90
24338;DHT22;12457;50.832;4.346;2023-03-12T09:58:18;12.70;99.90
24338;DHT22;12457;50.832;4.346;2023-03-12T10:01:09;12.90;99.90
24338;DHT22;12457;50.832;4.346;2023-03-12T10:06:51;12.90;99.90
24338;DHT22;12457;50.832;4.346;2023-03-12T10:20:51;12.60;99.90
24338;DHT22;12457;50.832;4.346;2023-03-12T10:23:47;12.80;99.90
24338;DHT22;12457;50.832;4.346;2023-03-12T10:26:30;13.00;99.90
24338;DHT22;12457;50.832;4.346;2023-03-12T10:29:35;13.10;99.90
24338;DHT22;12457;50.832;4.346;2023-03-12T10:32:10;13.20;99.90
24338;DHT22;12457;50.832;4.346;2023-03-12T10:34:56;13.30;99.90
24338;DHT22;12457;50.832;4.346;2023-03-12T10:37:42;13.40;99.90
24338;DHT22;12457;50.832;4.346;2023-03-12T10:40:14;13.30;99.90
24338;DHT22;12457;50.832;4.346;2023-03-12T10:42:41;13.40;99.90
24338;DHT22;12457;50.832;4.346;2023-03-12T10:45:45;13.60;99.90
24338;DHT22;12457;50.832;4.346;2023-03-12T10:48:09;13.80;99.90
24338;DHT22;12457;50.832;4.346;2023-03-12T10:50:38;13.80;99.90
24338;DHT22;12457;50.832;4.346;2023-03-12T10:53:31;13.60;99.90
24338;DHT22;12457;50.832;4.346;2023-03-12T10:56:18;13.40;99.90
24338;DHT22;12457;50.832;4.346;2023-03-12T10:58:49;13.40;99.90
24338;DHT22;12457;50.832;4.346;2023-03-12T11:01:28;13.60;99.90
24338;DHT22;12457;50.832;4.346;2023-03-12T11:04:18;13.70;99.90
24338;DHT22;12457;50.832;4.346;2023-03-12T11:07:26;13.80;99.90
24338;DHT22;12457;50.832;4.346;2023-03-12T11:13:03;13.60;99.90
24338;DHT22;12457;50.832;4.346;2023-03-12T11:15:47;13.80;99.90
24338;DHT22;12457;50.832;4.346;2023-03-12T11:20:48;13.60;99.90
24338;DHT22;12457;50.832;4.346;2023-03-12T11:23:37;13.50;99.90
24338;DHT22;12457;50.832;4.346;2023-03-12T11:26:04;13.50;99.90
24338;DHT22;12457;50.832;4.346;2023-03-12T11:28:44;13.40;99.90
24338;DHT22;12457;50.832;4.346;2023-03-12T11:31:29;13.40;99.90
24338;DHT22;12457;50.832;4.346;2023-03-12T11:34:04;13.40;99.90
24338;DHT22;12457;50.832;4.346;2023-03-12T11:44:20;13.70;99.90
24338;DHT22;12457;50.832;4.346;2023-03-12T11:49:59;13.80;99.90
24338;DHT22;12457;50.832;4.346;2023-03-12T11:58:19;13.90;99.90
24338;DHT22;12457;50.832;4.346;2023-03-12T12:15:01;13.40;99.90
24338;DHT22;12457;50.832;4.346;2023-03-12T12:20:44;13.60;99.90
24338;DHT22;12457;50.832;4.346;2023-03-12T12:26:16;13.80;99.90
24338;DHT22;12457;50.832;4.346;2023-03-12T12:31:56;14.00;99.90
24338;DHT22;12457;50.832;4.346;2023-03-12T12:37:12;14.40;99.90
24338;DHT22;12457;50.832;4.346;2023-03-12T12:39:41;14.20;99.90
24338;DHT22;12457;50.832;4.346;2023-03-12T12:42:14;14.20;99.90
24338;DHT22;12457;50.832;4.346;2023-03-12T12:44:52;14.20;99.90
24338;DHT22;12457;50.832;4.346;2023-03-12T12:50:51;14.20;99.90
24338;DHT22;12457;50.832;4.346;2023-03-12T13:01:17;14.30;99.90
24338;DHT22;12457;50.832;4.346;2023-03-12T13:03:46;14.20;99.90
24338;DHT22;12457;50.832;4.346;2023-03-12T13:06:12;14.10;99.90
24338;DHT22;12457;50.832;4.346;2023-03-12T13:16:34;14.20;99.90
24338;DHT22;12457;50.832;4.346;2023-03-12T13:27:19;13.90;99.90
24338;DHT22;12457;50.832;4.346;2023-03-12T13:29:47;14.00;99.90
24338;DHT22;12457;50.832;4.346;2023-03-12T13:40:38;14.00;99.90
24338;DHT22;12457;50.832;4.346;2023-03-12T13:43:14;14.10;99.90
24338;DHT22;12457;50.832;4.346;2023-03-12T13:45:58;14.30;99.90
24338;DHT22;12457;50.832;4.346;2023-03-12T13:48:25;14.20;99.90
24338;DHT22;12457;50.832;4.346;2023-03-12T13:50:58;14.30;99.90
24338;DHT22;12457;50.832;4.346;2023-03-12T13:53:32;14.30;99.90
24338;DHT22;12457;50.832;4.346;2023-03-12T13:56:11;14.30;99.90
24338;DHT22;12457;50.832;4.346;2023-03-12T13:59:00;14.40;99.90
24338;DHT22;12457;50.832;4.346;2023-03-12T14:01:47;14.30;99.90
24338;DHT22;12457;50.832;4.346;2023-03-12T14:04:21;14.20;99.90
24338;DHT22;12457;50.832;4.346;2023-03-12T14:09:31;14.20;99.90
24338;DHT22;12457;50.832;4.346;2023-03-12T14:12:09;14.20;99.90
24338;DHT22;12457;50.832;4.346;2023-03-12T14:17:14;14.10;99.90
24338;DHT22;12457;50.832;4.346;2023-03-12T14:19:46;14.20;99.90
24338;DHT22;12457;50.832;4.346;2023-03-12T14:22:14;14.10;99.90
24338;DHT22;12457;50.832;4.346;2023-03-12T14:24:52;13.90;99.90
24338;DHT22;12457;50.832;4.346;2023-03-12T14:27:24;13.90;99.90
24338;DHT22;12457;50.832;4.346;2023-03-12T14:33:18;13.90;99.90
24338;DHT22;12457;50.832;4.346;2023-03-12T14:36:11;13.90;99.90
24338;DHT22;12457;50.832;4.346;2023-03-12T14:38:43;14.10;99.90
24338;DHT22;12457;50.832;4.346;2023-03-12T14:41:31;14.10;99.90
24338;DHT22;12457;50.832;4.346;2023-03-12T14:44:19;14.10;99.90
24338;DHT22;12457;50.832;4.346;2023-03-12T14:46:50;14.00;99.90
24338;DHT22;12457;50.832;4.346;2023-03-12T14:49:41;13.90;99.90
24338;DHT22;12457;50.832;4.346;2023-03-12T14:52:25;14.00;99.90
24338;DHT22;12457;50.832;4.346;2023-03-12T14:54:56;14.00;99.90
24338;DHT22;12457;50.832;4.346;2023-03-12T14:57:23;13.90;99.90
24338;DHT22;12457;50.832;4.346;2023-03-12T14:59:59;13.90;99.90
24338;DHT22;12457;50.832;4.346;2023-03-12T15:02:28;13.90;99.90
24338;DHT22;12457;50.832;4.346;2023-03-12T15:04:56;13.90;99.90
24338;DHT22;12457;50.832;4.346;2023-03-12T15:07:34;14.00;99.90
24338;DHT22;12457;50.832;4.346;2023-03-12T15:10:03;14.10;99.90
24338;DHT22;12457;50.832;4.346;2023-03-12T15:12:36;14.10;99.90
24338;DHT22;12457;50.832;4.346;2023-03-12T15:15:08;14.10;99.90
24338;DHT22;12457;50.832;4.346;2023-03-12T15:17:38;14.00;99.90
24338;DHT22;12457;50.832;4.346;2023-03-12T15:20:07;14.00;99.90
24338;DHT22;12457;50.832;4.346;2023-03-12T15:22:34;13.90;99.90
24338;DHT22;12457;50.832;4.346;2023-03-12T15:25:19;13.90;99.90
24338;DHT22;12457;50.832;4.346;2023-03-12T15:27:45;13.80;99.90
24338;DHT22;12457;50.832;4.346;2023-03-12T15:30:24;13.70;99.90
24338;DHT22;12457;50.832;4.346;2023-03-12T15:35:55;13.70;99.90
24338;DHT22;12457;50.832;4.346;2023-03-12T15:38:22;13.60;99.90
24338;DHT22;12457;50.832;4.346;2023-03-12T15:40:49;13.60;99.90
24338;DHT22;12457;50.832;4.346;2023-03-12T15:43:19;13.60;99.90
24338;DHT22;12457;50.832;4.346;2023-03-12T15:45:46;13.50;33.10
24338;DHT22;12457;50.832;4.346;2023-03-12T15:54:22;13.40;99.90
24338;DHT22;12457;50.832;4.346;2023-03-12T15:56:49;13.40;99.90
24338;DHT22;12457;50.832;4.346;2023-03-12T15:59:23;13.30;99.90
24338;DHT22;12457;50.832;4.346;2023-03-12T16:01:54;13.20;99.90
24338;DHT22;12457;50.832;4.346;2023-03-12T16:04:22;13.20;99.90
24338;DHT22;12457;50.832;4.346;2023-03-12T16:06:50;13.10;99.90
24338;DHT22;12457;50.832;4.346;2023-03-12T16:09:22;13.20;99.90
24338;DHT22;12457;50.832;4.346;2023-03-12T16:11:51;13.20;99.90
24338;DHT22;12457;50.832;4.346;2023-03-12T16:14:31;13.30;99.90
24338;DHT22;12457;50.832;4.346;2023-03-12T16:16:58;13.10;99.90
24338;DHT22;12457;50.832;4.346;2023-03-12T16:19:29;13.20;99.90
24338;DHT22;12457;50.832;4.346;2023-03-12T16:21:58;13.10;99.90
24338;DHT22;12457;50.832;4.346;2023-03-12T16:24:24;13.10;99.90
24338;DHT22;12457;50.832;4.346;2023-03-12T16:26:58;13.10;99.90
24338;DHT22;12457;50.832;4.346;2023-03-12T16:29:33;13.00;99.90
24338;DHT22;12457;50.832;4.346;2023-03-12T16:32:00;13.00;99.90
24338;DHT22;12457;50.832;4.346;2023-03-12T16:34:46;13.00;99.90
24338;DHT22;12457;50.832;4.346;2023-03-12T16:37:12;12.90;99.90
24338;DHT22;12457;50.832;4.346;2023-03-12T16:39:38;12.90;99.90
24338;DHT22;12457;50.832;4.346;2023-03-12T16:42:17;13.00;99.90
24338;DHT22;12457;50.832;4.346;2023-03-12T16:44:45;12.90;99.90
24338;DHT22;12457;50.832;4.346;2023-03-12T16:47:13;12.80;99.90
24338;DHT22;12457;50.832;4.346;2023-03-12T16:49:39;12.80;99.90
24338;DHT22;12457;50.832;4.346;2023-03-12T16:52:18;12.80;99.90
24338;DHT22;12457;50.832;4.346;2023-03-12T16:54:44;12.90;99.90
24338;DHT22;12457;50.832;4.346;2023-03-12T16:57:30;12.80;99.90
24338;DHT22;12457;50.832;4.346;2023-03-12T16:59:57;12.70;99.90
24338;DHT22;12457;50.832;4.346;2023-03-12T17:02:23;12.70;99.90
24338;DHT22;12457;50.832;4.346;2023-03-12T17:04:50;12.60;99.90
24338;DHT22;12457;50.832;4.346;2023-03-12T17:07:17;12.60;99.90
24338;DHT22;12457;50.832;4.346;2023-03-12T17:09:46;12.60;99.90
24338;DHT22;12457;50.832;4.346;2023-03-12T17:12:23;12.60;99.90
24338;DHT22;12457;50.832;4.346;2023-03-12T17:14:52;12.50;99.90
24338;DHT22;12457;50.832;4.346;2023-03-12T17:17:19;12.40;99.90
24338;DHT22;12457;50.832;4.346;2023-03-12T17:19:48;12.40;99.90
24338;DHT22;12457;50.832;4.346;2023-03-12T17:22:14;12.30;99.90
24338;DHT22;12457;50.832;4.346;2023-03-12T17:24:41;12.30;99.90
24338;DHT22;12457;50.832;4.346;2023-03-12T17:27:07;12.20;99.90
24338;DHT22;12457;50.832;4.346;2023-03-12T17:29:32;12.10;99.90
24338;DHT22;12457;50.832;4.346;2023-03-12T17:31:58;12.00;99.90
24338;DHT22;12457;50.832;4.346;2023-03-12T17:34:43;12.00;99.90
24338;DHT22;12457;50.832;4.346;2023-03-12T17:37:09;11.90;99.90
24338;DHT22;12457;50.832;4.346;2023-03-12T17:39:36;11.90;99.90
24338;DHT22;12457;50.832;4.346;2023-03-12T17:42:02;12.00;99.90
24338;DHT22;12457;50.832;4.346;2023-03-12T17:44:31;11.90;99.90
24338;DHT22;12457;50.832;4.346;2023-03-12T17:46:59;11.90;99.90
24338;DHT22;12457;50.832;4.346;2023-03-12T17:49:27;12.00;99.90
24338;DHT22;12457;50.832;4.346;2023-03-12T17:51:54;12.00;99.90
24338;DHT22;12457;50.832;4.346;2023-03-12T17:54:23;12.00;99.90
24338;DHT22;12457;50.832;4.346;2023-03-12T17:56:48;12.00;99.90
24338;DHT22;12457;50.832;4.346;2023-03-12T17:59:14;12.00;99.90
24338;DHT22;12457;50.832;4.346;2023-03-12T18:01:40;12.00;99.90
24338;DHT22;12457;50.832;4.346;2023-03-12T18:04:13;11.90;99.90